Terminal Aerodrome Forecast
Issued by NWS Topeka, KS

Home | Current Version | Previous Version | Graphics & Text | Print | Product List | Glossary On
Versions: 1 2 3 4 5 6 7 8 9 10 11 12
430
FTUS43 KTOP 201122
TAFTOP
TAF
KTOP 201122Z 2012/2112 21010G20KT P6SM SKC WS017/19055KT
     FM201300 21011KT P6SM FEW200
     FM202300 04005KT P6SM SCT090
     FM210100 07006KT P6SM VCTS BKN090CB=

USA.gov is the U.S. government's official web portal to all federal, state and local government web resources and services.